createdAt,value
2022-08-23T03:12:08.109Z,99710.81
2022-08-23T03:15:11.667Z,99710.81
2022-08-23T03:18:13.960Z,99720.88
2022-08-23T03:21:17.699Z,99733.22
2022-08-23T03:24:20.502Z,99728.94
2022-08-23T03:27:23.552Z,99735.13
2022-08-23T03:30:26.645Z,99736.97
2022-08-23T03:33:30.123Z,99741.28
2022-08-23T03:36:32.714Z,99727.22
2022-08-23T03:39:35.228Z,99737.00
2022-08-23T03:42:37.425Z,99741.41
2022-08-23T03:45:39.930Z,99737.84
2022-08-23T03:48:42.677Z,99742.16
2022-08-23T03:51:45.072Z,99745.69
2022-08-23T03:54:47.186Z,99745.75
2022-08-23T03:57:49.696Z,99747.44
2022-08-23T04:00:52.950Z,99757.84
2022-08-23T04:03:55.616Z,99758.63
2022-08-23T04:06:57.966Z,99758.63
2022-08-23T04:10:00.485Z,99770.88
2022-08-23T04:13:02.849Z,99776.09
2022-08-23T04:16:06.272Z,99775.28
2022-08-23T04:19:13.101Z,99777.06
2022-08-23T04:22:19.048Z,99773.59
2022-08-23T04:25:34.996Z,99775.34
2022-08-23T04:28:38.174Z,99770.94
2022-08-23T04:31:40.447Z,99763.91
2022-08-23T04:34:45.427Z,99763.03
2022-08-23T04:37:48.205Z,99775.50
2022-08-23T04:41:11.112Z,99772.06
2022-08-23T04:44:15.485Z,99773.00
2022-08-23T04:47:20.325Z,99775.75
2022-08-23T04:50:22.881Z,99780.13
2022-08-23T04:53:29.144Z,99786.38
2022-08-23T04:56:32.031Z,99787.34
2022-08-23T04:59:34.458Z,99793.59
2022-08-23T05:02:36.734Z,99799.75
2022-08-23T05:05:39.176Z,99792.75
2022-08-23T05:08:41.395Z,99802.53
2022-08-23T05:11:44.333Z,99797.34
2022-08-23T05:14:47.917Z,99806.09
2022-08-23T05:17:51.864Z,99805.13
2022-08-23T05:20:54.351Z,99806.00
2022-08-23T05:24:00.677Z,99806.84
2022-08-23T05:27:07.229Z,99805.88
2022-08-23T05:30:15.101Z,99808.53
2022-08-23T05:33:17.752Z,99817.28
2022-08-23T05:36:20.382Z,99827.06
2022-08-23T05:39:32.928Z,99810.22
2022-08-23T05:42:39.270Z,99813.19
2022-08-23T05:45:41.948Z,99824.69
2022-08-23T05:48:48.753Z,99835.34
2022-08-23T05:51:51.965Z,99833.53
2022-08-23T05:54:54.559Z,99837.03
2022-08-23T05:57:58.014Z,99843.28
2022-08-23T06:01:01.961Z,99853.00
2022-08-23T06:04:07.267Z,99856.53
2022-08-23T06:07:11.050Z,99847.69
2022-08-23T06:10:16.205Z,99842.41
2022-08-23T06:13:19.246Z,99862.72
2022-08-23T06:16:26.105Z,99860.97
2022-08-23T06:19:29.563Z,99866.22
2022-08-23T06:22:33.469Z,99860.09
2022-08-23T06:25:39.214Z,99869.81
2022-08-23T06:28:50.992Z,99874.22
2022-08-23T06:31:54.105Z,99876.88
2022-08-23T06:35:32.842Z,99881.28
2022-08-23T06:38:19.658Z,99873.38
2022-08-23T06:41:22.655Z,99887.53
2022-08-23T06:44:24.899Z,99882.22
2022-08-23T06:47:27.837Z,99879.56
2022-08-23T06:50:32.452Z,99883.94
2022-08-23T06:53:43.348Z,99878.63
2022-08-23T06:56:46.570Z,99894.47
2022-08-23T06:59:49.898Z,99887.37
2022-08-23T07:02:52.799Z,99892.72
2022-08-23T07:05:58.413Z,99891.69
2022-08-23T07:09:01.608Z,99901.28
2022-08-23T07:12:04.630Z,99898.62
2022-08-23T07:15:07.533Z,99897.56
2022-08-23T07:18:11.016Z,99906.09
2022-08-23T07:21:16.162Z,99899.59
2022-08-23T07:24:20.717Z,99897.69
2022-08-23T07:27:23.518Z,99900.94
2022-08-23T07:30:26.417Z,99900.28
2022-08-23T07:33:28.649Z,99891.97
2022-08-23T07:36:38.930Z,99891.41
2022-08-23T07:39:41.167Z,99897.44
2022-08-23T07:42:43.887Z,99890.59
2022-08-23T07:45:49.687Z,99899.53
2022-08-23T07:48:55.330Z,99906.75
2022-08-23T07:51:58.861Z,99915.91
2022-08-23T07:55:01.817Z,99917.72
2022-08-23T07:58:04.340Z,99917.84
2022-08-23T08:01:12.473Z,99918.13
2022-08-23T08:04:15.867Z,99910.63
2022-08-23T08:07:20.748Z,99908.00
2022-08-23T08:10:25.276Z,99906.66
2022-08-23T08:13:27.405Z,99901.41
2022-08-23T08:16:32.752Z,99907.38
2022-08-23T08:19:36.173Z,99912.44
2022-08-23T08:22:40.534Z,99905.56
2022-08-23T08:25:45.795Z,99911.56
2022-08-23T08:28:48.788Z,99911.91
2022-08-23T08:31:54.260Z,99913.44
2022-08-23T08:34:56.990Z,99923.09
2022-08-23T08:37:59.552Z,99927.91
2022-08-23T08:41:11.313Z,99935.47
2022-08-23T08:44:19.554Z,99932.47
2022-08-23T08:47:51.138Z,99936.69
2022-08-23T08:50:59.158Z,99942.13
2022-08-23T08:54:06.275Z,99942.72
2022-08-23T08:57:13.689Z,99935.84
2022-08-23T09:00:24.305Z,99935.69
2022-08-23T09:03:32.477Z,99939.72
2022-08-23T09:06:54.525Z,99941.97
2022-08-23T09:10:03.809Z,99951.88
2022-08-23T09:13:20.731Z,99946.28
2022-08-23T09:16:50.717Z,99952.78
2022-08-23T09:20:00.269Z,99942.25
2022-08-23T09:23:15.269Z,99937.06
2022-08-23T09:26:25.638Z,99946.38
2022-08-23T09:29:31.598Z,99941.69
2022-08-23T09:32:37.588Z,99931.44
2022-08-23T09:35:40.025Z,99940.25
2022-08-23T09:38:56.447Z,99948.13
2022-08-23T09:41:59.925Z,99947.06
2022-08-23T09:45:05.089Z,99947.97
2022-08-23T09:48:12.175Z,99949.47
2022-08-23T09:51:41.551Z,99946.63
2022-08-23T09:54:55.825Z,99945.03
2022-08-23T09:58:03.866Z,99943.25
2022-08-23T10:01:20.499Z,99945.44
2022-08-23T10:04:25.250Z,99944.38
2022-08-23T10:07:42.934Z,99947.47
2022-08-23T10:10:51.055Z,99945.25
2022-08-23T10:13:54.095Z,99948.06
2022-08-23T10:17:21.187Z,99939.75
2022-08-23T10:20:29.666Z,99951.56
2022-08-23T10:23:38.697Z,99955.59
2022-08-23T10:27:30.168Z,99943.00
2022-08-23T10:30:50.773Z,99944.84
2022-08-23T10:34:17.941Z,99940.37
2022-08-23T10:37:36.068Z,99943.13
2022-08-23T10:40:52.294Z,99935.44
2022-08-23T10:44:23.009Z,99936.62
2022-08-23T10:47:44.715Z,99942.09
2022-08-23T10:50:55.623Z,99942.22
2022-08-23T10:54:00.415Z,99936.88
2022-08-23T10:57:04.671Z,99936.81
2022-08-23T11:00:17.139Z,99937.28
2022-08-23T11:03:32.226Z,99942.72
2022-08-23T11:06:48.198Z,99933.19
2022-08-23T11:10:07.240Z,99936.94
2022-08-23T11:13:30.235Z,99927.69
2022-08-23T11:16:34.882Z,99933.69
2022-08-23T11:19:55.940Z,99935.13
2022-08-23T11:23:01.602Z,99934.41
2022-08-23T11:26:06.023Z,99928.22
2022-08-23T11:29:09.337Z,99928.78
2022-08-23T11:32:32.375Z,99922.44
2022-08-23T11:35:43.294Z,99931.34
2022-08-23T11:38:48.795Z,99930.44
2022-08-23T11:41:54.228Z,99926.19
2022-08-23T11:44:56.918Z,99923.59
2022-08-23T11:48:36.135Z,99922.19
2022-08-23T11:51:38.139Z,99917.25
2022-08-23T11:55:02.334Z,99916.69
2022-08-23T11:58:16.345Z,99917.94
2022-08-23T12:01:31.399Z,99914.06
2022-08-23T12:04:39.117Z,99917.87
2022-08-23T12:07:55.473Z,99912.75
2022-08-23T12:11:02.082Z,99927.19
2022-08-23T12:14:42.294Z,99920.34
2022-08-23T12:17:45.862Z,99918.72
2022-08-23T12:20:58.883Z,99922.19
2022-08-23T12:24:32.766Z,99921.16
2022-08-23T12:27:55.346Z,99918.50
2022-08-23T12:31:13.517Z,99911.97
2022-08-23T12:34:26.933Z,99925.94
2022-08-23T12:38:10.250Z,99920.31
2022-08-23T12:41:25.309Z,99919.88
2022-08-23T12:44:30.274Z,99923.81
2022-08-23T12:47:39.705Z,99929.00
2022-08-23T12:50:54.282Z,99919.44
2022-08-23T12:53:56.623Z,99935.81
2022-08-23T12:56:59.265Z,99938.84
2022-08-23T13:00:32.087Z,99938.25
2022-08-23T13:03:44.578Z,99935.44
2022-08-23T13:06:51.996Z,99929.66
2022-08-23T13:09:55.547Z,99931.87
2022-08-23T13:12:58.117Z,99928.34
2022-08-23T13:16:03.369Z,99931.00
2022-08-23T13:19:23.062Z,99926.28
2022-08-23T13:22:26.091Z,99931.69
2022-08-23T13:25:33.900Z,99929.09
2022-08-23T13:28:36.719Z,99929.47
2022-08-23T13:32:05.763Z,99930.91
2022-08-23T13:35:30.885Z,99927.28
2022-08-23T13:38:33.330Z,99918.22
2022-08-23T13:41:38.755Z,99914.25
2022-08-23T13:44:43.088Z,99912.16
2022-08-23T13:47:54.070Z,99908.06
2022-08-23T13:51:24.213Z,99909.16
2022-08-23T13:54:28.908Z,99909.09
2022-08-23T13:57:33.780Z,99911.13
2022-08-23T14:00:36.503Z,99909.09
2022-08-23T14:03:39.110Z,99904.81
2022-08-23T14:06:41.253Z,99907.09
2022-08-23T14:09:44.466Z,99905.94
2022-08-23T14:12:47.852Z,99906.19
2022-08-23T14:15:58.871Z,99907.59
2022-08-23T14:19:16.689Z,99908.00
2022-08-23T14:22:35.543Z,99915.72
2022-08-23T14:25:37.637Z,99907.44
2022-08-23T14:28:44.280Z,99906.75
2022-08-23T14:31:46.750Z,99908.81
2022-08-23T14:34:49.218Z,99907.41
2022-08-23T14:38:06.555Z,99908.59
2022-08-23T14:41:13.542Z,99900.63
2022-08-23T14:44:16.442Z,99913.22
2022-08-23T14:47:19.038Z,99912.28
2022-08-23T14:50:21.231Z,99900.00
2022-08-23T14:53:27.589Z,99901.94
2022-08-23T14:56:30.770Z,99903.88
2022-08-23T14:59:33.208Z,99899.41
2022-08-23T15:02:36.544Z,99900.56
2022-08-23T15:05:38.990Z,99903.16
2022-08-23T15:08:41.638Z,99909.37
2022-08-23T15:15:16.832Z,99903.19
2022-08-23T15:18:24.568Z,99903.16
2022-08-23T15:21:27.277Z,99906.03
2022-08-23T15:24:30.594Z,99902.47
2022-08-23T15:27:32.736Z,99900.50
